createdAt,value
2022-10-23T00:01:24.600Z,100994.78
2022-10-23T00:03:53.430Z,100996.44
2022-10-23T00:06:20.563Z,100981.69
2022-10-23T00:08:48.008Z,100992.06
2022-10-23T00:11:17.958Z,100991.47
2022-10-23T00:13:45.454Z,100976.59
2022-10-23T00:16:12.251Z,100977.66
2022-10-23T00:18:39.734Z,100974.19
2022-10-23T00:21:08.088Z,100990.63
2022-10-23T00:23:35.373Z,100994.78
2022-10-23T00:26:02.911Z,100997.19
2022-10-23T00:28:29.748Z,100989.16
2022-10-23T00:30:56.491Z,100992.63
2022-10-23T00:33:22.909Z,100992.38
2022-10-23T00:35:49.336Z,100986.31
2022-10-23T00:38:15.753Z,100980.84
2022-10-23T00:40:44.065Z,100981.44
2022-10-23T00:43:30.079Z,100976.91
2022-10-23T00:45:57.069Z,100979.53
2022-10-23T00:48:25.377Z,100967.50
2022-10-23T00:50:52.356Z,100956.31
2022-10-23T00:53:20.280Z,100958.09
2022-10-23T00:55:50.293Z,100965.81
2022-10-23T00:58:18.953Z,100968.44
2022-10-23T01:00:55.898Z,100965.00
2022-10-23T01:03:26.036Z,100976.09
2022-10-23T01:06:13.329Z,100972.63
2022-10-23T01:08:48.913Z,100971.44
2022-10-23T01:11:24.744Z,100973.69
2022-10-23T01:14:06.303Z,100966.66
2022-10-23T01:17:00.259Z,100962.28
2022-10-23T01:19:36.351Z,100964.66
2022-10-23T01:22:32.168Z,100965.25
2022-10-23T01:25:26.253Z,100965.47
2022-10-23T01:27:58.512Z,100960.00
2022-10-23T01:30:24.960Z,100954.50
2022-10-23T01:32:58.786Z,100953.53
2022-10-23T01:35:30.706Z,100948.31
2022-10-23T01:38:13.119Z,100942.69
2022-10-23T01:40:54.864Z,100945.03
2022-10-23T01:43:27.923Z,100921.03
2022-10-23T01:46:05.584Z,100936.81
2022-10-23T01:48:35.446Z,100911.63
2022-10-23T01:51:06.361Z,100927.75
2022-10-23T01:53:38.434Z,100921.28
2022-10-23T01:56:11.897Z,100908.19
2022-10-23T01:58:40.723Z,100912.09
2022-10-23T02:01:10.172Z,100910.19
2022-10-23T02:03:38.543Z,100900.28
2022-10-23T02:06:05.307Z,100896.13
2022-10-23T02:08:32.102Z,100909.78
2022-10-23T02:11:07.690Z,100900.28
2022-10-23T02:13:38.395Z,100895.03
2022-10-23T02:16:13.939Z,100894.75
2022-10-23T02:18:52.117Z,100903.09
2022-10-23T02:21:26.972Z,100896.88
2022-10-23T02:24:07.547Z,100886.63
2022-10-23T02:26:39.054Z,100893.16
2022-10-23T02:29:18.459Z,100883.50
2022-10-23T02:31:45.335Z,100862.91
2022-10-23T02:34:11.774Z,100865.59
2022-10-23T02:36:41.255Z,100868.06
2022-10-23T02:39:07.706Z,100866.84
2022-10-23T02:41:38.106Z,100864.81
2022-10-23T02:44:25.741Z,100860.81
2022-10-23T02:47:12.661Z,100845.19
2022-10-23T02:50:04.022Z,100844.91
2022-10-23T02:53:10.425Z,100810.22
2022-10-23T02:56:34.457Z,100857.69
2022-10-23T02:59:16.929Z,100862.78
2022-10-23T03:01:52.932Z,100858.94
2022-10-23T03:04:23.685Z,100856.72
2022-10-23T03:06:51.532Z,100842.50
2022-10-23T03:09:18.289Z,100840.03
2022-10-23T03:11:44.710Z,100844.41
2022-10-23T03:14:13.434Z,100826.91
2022-10-23T03:16:40.114Z,100807.53
2022-10-23T03:19:06.609Z,100817.63
2022-10-23T03:21:33.054Z,100821.09
2022-10-23T03:23:59.476Z,100817.63
2022-10-23T03:26:25.933Z,100813.63
2022-10-23T03:28:52.341Z,100816.25
2022-10-23T03:31:18.848Z,100800.69
2022-10-23T03:33:45.281Z,100814.28
2022-10-23T03:36:12.161Z,100810.16
2022-10-23T03:38:38.588Z,100813.84
2022-10-23T03:41:05.297Z,100826.28
2022-10-23T03:43:32.025Z,100821.16
2022-10-23T03:45:58.727Z,100834.94
2022-10-23T03:48:25.252Z,100812.75
2022-10-23T03:50:53.183Z,100808.22
2022-10-23T03:53:19.658Z,100810.00
2022-10-23T03:55:46.128Z,100811.28
2022-10-23T03:58:12.661Z,100808.78
2022-10-23T04:00:39.111Z,100779.44
2022-10-23T04:03:05.636Z,100804.06
2022-10-23T04:05:32.044Z,100790.38
2022-10-23T04:07:58.481Z,100794.66
2022-10-23T04:10:24.913Z,100801.97
2022-10-23T04:12:51.341Z,100786.91
2022-10-23T04:15:17.863Z,100789.91
2022-10-23T04:17:44.292Z,100777.47
2022-10-23T04:20:10.748Z,100750.94
2022-10-23T04:22:37.135Z,100781.59
2022-10-23T04:25:03.804Z,100786.03
2022-10-23T04:27:30.313Z,100769.88
2022-10-23T04:29:59.012Z,100776.59
2022-10-23T04:32:26.109Z,100780.75
2022-10-23T04:34:52.639Z,100761.13
2022-10-23T04:37:19.650Z,100760.16
2022-10-23T04:39:46.435Z,100751.91
2022-10-23T04:42:12.984Z,100757.72
2022-10-23T04:44:39.460Z,100771.53
2022-10-23T04:47:05.878Z,100765.84
2022-10-23T04:49:32.270Z,100765.28
2022-10-23T04:51:58.674Z,100765.16
2022-10-23T04:54:25.240Z,100753.97
2022-10-23T04:56:51.687Z,100757.81
2022-10-23T04:59:18.111Z,100766.78
2022-10-23T05:01:44.616Z,100766.50
2022-10-23T05:04:11.115Z,100772.56
2022-10-23T05:06:37.602Z,100747.34
2022-10-23T05:09:04.127Z,100754.34
2022-10-23T05:11:30.547Z,100746.78
2022-10-23T05:13:57.028Z,100749.41
2022-10-23T05:16:34.005Z,100749.28
2022-10-23T05:19:01.139Z,100742.22
2022-10-23T05:21:30.819Z,100732.72
2022-10-23T05:23:57.595Z,100735.31
2022-10-23T05:26:24.142Z,100722.22
2022-10-23T05:28:50.547Z,100720.56
2022-10-23T05:31:19.142Z,100723.19
2022-10-23T05:33:45.700Z,100725.81
2022-10-23T05:36:14.056Z,100723.06
2022-10-23T05:38:40.904Z,100725.53
2022-10-23T05:41:07.390Z,100715.06
2022-10-23T05:43:33.848Z,100711.47
2022-10-23T05:46:04.942Z,100723.38
2022-10-23T05:48:35.627Z,100710.16
2022-10-23T05:51:04.415Z,100714.53
2022-10-23T05:53:30.871Z,100714.53
2022-10-23T05:55:57.375Z,100686.50
2022-10-23T05:58:23.813Z,100705.47
2022-10-23T06:00:50.264Z,100693.06
2022-10-23T06:03:16.696Z,100697.72
2022-10-23T06:05:49.927Z,100701.88
2022-10-23T06:08:16.400Z,100698.03
2022-10-23T06:10:43.054Z,100707.25
2022-10-23T06:13:09.921Z,100692.50
2022-10-23T06:15:36.550Z,100687.50
2022-10-23T06:18:04.821Z,100691.94
2022-10-23T06:20:31.432Z,100694.25
2022-10-23T06:22:57.876Z,100696.50
2022-10-23T06:25:24.269Z,100686.41
2022-10-23T06:27:51.134Z,100683.09
2022-10-23T06:30:17.613Z,100692.09
2022-10-23T06:32:44.412Z,100680.91
2022-10-23T06:35:11.076Z,100689.34
2022-10-23T06:37:37.645Z,100686.00
2022-10-23T06:40:04.813Z,100681.72
2022-10-23T06:42:31.264Z,100687.25
2022-10-23T06:44:58.115Z,100685.06
2022-10-23T06:47:24.670Z,100677.09
2022-10-23T06:49:51.146Z,100658.59
2022-10-23T06:52:41.664Z,100670.88
2022-10-23T06:55:04.563Z,100675.72
2022-10-23T06:57:31.005Z,100670.63
2022-10-23T06:59:57.454Z,100676.69
2022-10-23T07:02:23.925Z,100681.28
2022-10-23T07:04:50.454Z,100678.09
2022-10-23T07:07:17.160Z,100680.03
2022-10-23T07:09:43.691Z,100687.47
2022-10-23T07:12:10.138Z,100678.66
2022-10-23T07:14:36.681Z,100667.72
2022-10-23T07:17:03.194Z,100681.81
2022-10-23T07:19:29.665Z,100668.88
2022-10-23T07:21:56.211Z,100677.25
2022-10-23T07:24:22.657Z,100671.63
2022-10-23T07:29:20.476Z,100658.78
2022-10-23T07:31:46.924Z,100650.34
2022-10-23T07:34:13.367Z,100624.53
2022-10-23T07:36:39.818Z,100650.44
2022-10-23T07:39:06.326Z,100655.16
2022-10-23T07:41:32.753Z,100605.84
2022-10-23T07:43:59.294Z,100652.16
2022-10-23T07:46:25.825Z,100652.25
2022-10-23T07:48:52.302Z,100657.31
2022-10-23T07:51:18.773Z,100651.84
2022-10-23T07:53:45.780Z,100652.94
2022-10-23T07:56:17.899Z,100648.94
2022-10-23T07:58:44.391Z,100637.69
2022-10-23T08:01:18.344Z,100628.56
2022-10-23T08:03:45.617Z,100635.22
2022-10-23T08:06:12.639Z,100638.66
2022-10-23T08:08:39.171Z,100638.28
2022-10-23T08:11:05.933Z,100641.72
2022-10-23T08:13:32.410Z,100633.06
2022-10-23T08:15:59.380Z,100629.59
2022-10-23T08:18:25.848Z,100635.22
2022-10-23T08:20:52.906Z,100635.94
2022-10-23T08:23:19.901Z,100635.13
2022-10-23T08:25:47.228Z,100639.91
2022-10-23T08:28:13.930Z,100636.63
2022-10-23T08:30:40.388Z,100644.91
2022-10-23T08:33:07.592Z,100639.47
2022-10-23T08:35:38.192Z,100638.47
2022-10-23T08:38:05.271Z,100635.13
2022-10-23T08:40:32.104Z,100618.00
2022-10-23T08:43:10.573Z,100628.41
2022-10-23T08:45:45.384Z,100630.88
2022-10-23T08:48:26.144Z,100629.75
2022-10-23T08:51:06.173Z,100618.03
2022-10-23T08:53:50.391Z,100616.38
2022-10-23T08:56:29.358Z,100612.28
2022-10-23T08:59:01.913Z,100591.13
2022-10-23T09:01:43.028Z,100601.66
2022-10-23T09:04:14.509Z,100583.91
2022-10-23T09:06:58.677Z,100578.88
2022-10-23T09:10:01.517Z,100569.63
2022-10-23T09:12:30.795Z,100560.06
2022-10-23T09:15:25.444Z,100577.91
2022-10-23T09:17:59.857Z,100543.97
2022-10-23T09:20:34.144Z,100576.72
2022-10-23T09:23:04.241Z,100573.75
2022-10-23T09:25:35.459Z,100564.13
2022-10-23T09:28:05.215Z,100575.97
2022-10-23T09:30:37.917Z,100566.28
2022-10-23T09:33:25.436Z,100541.38
2022-10-23T09:35:59.227Z,100552.53
2022-10-23T09:38:25.593Z,100550.34
2022-10-23T09:40:52.021Z,100543.97
2022-10-23T09:43:23.275Z,100542.69
2022-10-23T09:46:16.188Z,100536.50
2022-10-23T09:48:42.676Z,100523.59
2022-10-23T09:51:21.673Z,100522.31
2022-10-23T09:53:50.479Z,100529.78
2022-10-23T09:56:35.694Z,100468.31
2022-10-23T09:59:15.781Z,100500.25
2022-10-23T10:01:54.874Z,100513.31
2022-10-23T10:04:39.471Z,100526.50
2022-10-23T10:07:18.830Z,100515.75
2022-10-23T10:09:45.473Z,100521.38
2022-10-23T10:12:20.877Z,100503.06
2022-10-23T10:15:02.173Z,100498.78
2022-10-23T10:17:34.724Z,100510.81
2022-10-23T10:20:42.221Z,100498.28
2022-10-23T10:23:42.784Z,100491.88
2022-10-23T10:26:23.963Z,100459.91
2022-10-23T10:29:05.200Z,100425.97
2022-10-23T10:31:53.015Z,100468.47
2022-10-23T10:34:41.963Z,100470.78
2022-10-23T10:37:49.490Z,100470.97
2022-10-23T10:40:19.271Z,100461.88
2022-10-23T10:42:58.609Z,100457.78
2022-10-23T10:45:30.867Z,100438.97
2022-10-23T10:48:13.121Z,100445.59
2022-10-23T10:51:03.085Z,100446.88
2022-10-23T10:53:54.418Z,100441.44
2022-10-23T10:56:26.170Z,100432.03
2022-10-23T10:59:16.043Z,100432.53
2022-10-23T11:01:50.826Z,100430.19
2022-10-23T11:04:35.517Z,100433.66
2022-10-23T11:07:19.222Z,100419.00
2022-10-23T11:09:46.424Z,100420.13
2022-10-23T11:12:26.296Z,100422.09
2022-10-23T11:14:53.413Z,100395.22
2022-10-23T11:17:31.618Z,100391.59
2022-10-23T11:20:16.666Z,100406.41
2022-10-23T11:22:54.957Z,100407.75
2022-10-23T11:25:35.826Z,100396.00
2022-10-23T11:28:19.298Z,100373.63
2022-10-23T11:31:11.718Z,100403.56
2022-10-23T11:33:57.113Z,100401.59
2022-10-23T11:36:49.030Z,100386.13
2022-10-23T11:39:27.566Z,100345.81
2022-10-23T11:42:15.055Z,100378.72
2022-10-23T11:44:49.561Z,100386.56
2022-10-23T11:47:32.027Z,100388.69
2022-10-23T11:50:07.436Z,100382.47
2022-10-23T11:52:38.747Z,100378.06
2022-10-23T11:55:21.630Z,100376.88
2022-10-23T11:58:07.055Z,100331.13
2022-10-23T12:00:38.814Z,100365.34
2022-10-23T12:03:15.067Z,100366.16
2022-10-23T12:05:44.482Z,100339.06
2022-10-23T12:08:22.436Z,100342.84
2022-10-23T12:10:58.692Z,100351.78
2022-10-23T12:13:28.909Z,100342.63
2022-10-23T12:15:58.504Z,100347.19
2022-10-23T12:18:27.556Z,100346.28
2022-10-23T12:21:01.152Z,100345.63
2022-10-23T12:23:33.416Z,100340.34
2022-10-23T12:26:09.001Z,100321.19
2022-10-23T12:29:04.178Z,100316.78
2022-10-23T12:31:44.262Z,100318.84
2022-10-23T12:34:25.980Z,100323.78
2022-10-23T12:37:08.854Z,100313.50
2022-10-23T12:39:38.955Z,100294.31
2022-10-23T12:42:12.138Z,100304.34
2022-10-23T12:44:38.639Z,100300.16
2022-10-23T12:47:05.341Z,100287.53
2022-10-23T12:49:33.721Z,100253.25
2022-10-23T12:52:03.791Z,100263.94
2022-10-23T12:54:32.774Z,100278.97
2022-10-23T12:56:59.823Z,100257.69
2022-10-23T12:59:33.278Z,100279.88
2022-10-23T13:01:59.961Z,100250.81
2022-10-23T13:04:30.978Z,100270.41
2022-10-23T13:07:00.638Z,100252.63
2022-10-23T13:09:32.355Z,100253.38
2022-10-23T13:12:02.313Z,100243.69
2022-10-23T13:14:30.410Z,100232.78
2022-10-23T13:17:08.506Z,100237.06
2022-10-23T13:19:35.593Z,100243.06
2022-10-23T13:22:06.278Z,100233.13
2022-10-23T13:24:32.796Z,100241.13
2022-10-23T13:26:59.303Z,100227.75
2022-10-23T13:29:34.194Z,100223.31
2022-10-23T13:32:26.953Z,100203.50
2022-10-23T13:35:20.943Z,100215.00
2022-10-23T13:37:48.913Z,100197.03
2022-10-23T13:40:27.530Z,100205.88
2022-10-23T13:42:55.769Z,100198.50
2022-10-23T13:45:24.859Z,100187.75
2022-10-23T13:47:51.814Z,100181.28
2022-10-23T13:50:19.368Z,100191.31
2022-10-23T13:52:45.924Z,100193.31
2022-10-23T13:55:33.511Z,100192.31
2022-10-23T13:57:59.959Z,100193.16
2022-10-23T14:00:26.383Z,100179.41
2022-10-23T14:02:52.840Z,100177.94
2022-10-23T14:05:19.299Z,100180.19
2022-10-23T14:07:46.014Z,100164.97
2022-10-23T14:10:12.773Z,100171.19
2022-10-23T14:12:41.480Z,100173.00
2022-10-23T14:15:08.943Z,100155.31
2022-10-23T14:17:35.892Z,100151.03
2022-10-23T14:20:05.230Z,100157.13
2022-10-23T14:22:32.598Z,100160.63
2022-10-23T14:24:59.078Z,100153.41
2022-10-23T14:27:25.573Z,100164.63
2022-10-23T14:29:52.127Z,100160.25
2022-10-23T14:32:18.636Z,100150.06
2022-10-23T14:34:51.358Z,100128.06
2022-10-23T14:37:19.501Z,100145.41
2022-10-23T14:39:49.998Z,100148.03
2022-10-23T14:42:17.365Z,100160.63
2022-10-23T14:44:44.006Z,100163.88
2022-10-23T14:47:10.692Z,100148.59
2022-10-23T14:49:37.441Z,100176.94
2022-10-23T14:52:04.001Z,100216.94
2022-10-23T14:54:33.061Z,100216.09
2022-10-23T14:56:59.464Z,100223.19
2022-10-23T14:59:25.915Z,100228.59
2022-10-23T15:04:24.086Z,100223.78
2022-10-23T15:06:50.643Z,100232.88
2022-10-23T15:09:19.778Z,100209.06
2022-10-23T15:11:47.434Z,100240.78
2022-10-23T15:14:14.161Z,100234.88
2022-10-23T15:16:43.350Z,100228.84
2022-10-23T15:19:18.169Z,100223.09
2022-10-23T15:21:46.809Z,100203.97
2022-10-23T15:24:13.461Z,100195.50
2022-10-23T15:26:42.777Z,100193.75
2022-10-23T15:29:10.048Z,100199.75
2022-10-23T15:31:37.528Z,100185.69
2022-10-23T15:34:08.558Z,100183.34
2022-10-23T15:36:35.422Z,100185.97
2022-10-23T15:39:05.377Z,100190.88
2022-10-23T15:41:33.593Z,100185.50
2022-10-23T15:44:01.412Z,100218.00
2022-10-23T15:46:28.467Z,100228.56
2022-10-23T15:48:54.981Z,100246.88
2022-10-23T15:51:21.879Z,100241.59
2022-10-23T15:53:48.625Z,100226.28
2022-10-23T15:56:15.086Z,100196.59
2022-10-23T15:58:41.623Z,100228.16
2022-10-23T16:01:08.359Z,100225.41
2022-10-23T16:03:38.758Z,100215.91
2022-10-23T16:06:07.005Z,100212.47
2022-10-23T16:08:33.846Z,100213.63
2022-10-23T16:11:00.377Z,100194.91
2022-10-23T16:13:27.631Z,100182.19
2022-10-23T16:15:54.379Z,100183.53
2022-10-23T16:18:21.658Z,100180.47
2022-10-23T16:20:50.807Z,100204.25
2022-10-23T16:23:17.525Z,100210.03
2022-10-23T16:25:44.023Z,100209.91
2022-10-23T16:28:10.485Z,100216.34
2022-10-23T16:30:41.329Z,100238.56
2022-10-23T16:33:08.071Z,100257.50
2022-10-23T16:35:34.617Z,100215.91
2022-10-23T16:38:01.127Z,100183.50
2022-10-23T16:40:27.589Z,100170.88
2022-10-23T16:42:54.065Z,100179.88
2022-10-23T16:45:20.530Z,100132.13
2022-10-23T16:47:47.002Z,100142.03
2022-10-23T16:50:15.393Z,100151.09
2022-10-23T16:52:42.774Z,100125.56
2022-10-23T16:55:10.066Z,100146.00
2022-10-23T16:57:36.797Z,100122.44
2022-10-23T17:00:04.528Z,100121.63
2022-10-23T17:02:31.107Z,100130.19
2022-10-23T17:04:57.817Z,100140.50
2022-10-23T17:07:24.489Z,100172.13
2022-10-23T17:09:50.991Z,100172.97
2022-10-23T17:12:18.119Z,100146.44
2022-10-23T17:14:44.573Z,100159.31
2022-10-23T17:17:11.063Z,100145.63
2022-10-23T17:19:45.695Z,100120.59
2022-10-23T17:22:13.355Z,100117.44
2022-10-23T17:24:41.301Z,100143.78
2022-10-23T17:27:07.848Z,100161.91
2022-10-23T17:29:34.377Z,100172.59
2022-10-23T17:32:01.044Z,100155.66
2022-10-23T17:34:27.509Z,100169.25
2022-10-23T17:36:55.104Z,100156.53
2022-10-23T17:39:24.647Z,100171.31
2022-10-23T17:41:52.006Z,100171.78
2022-10-23T17:44:18.599Z,100187.09
2022-10-23T17:46:45.041Z,100177.19
2022-10-23T17:49:12.547Z,100182.13
2022-10-23T17:51:39.116Z,100173.03
2022-10-23T17:54:08.269Z,100162.13
2022-10-23T17:56:37.580Z,100165.59
2022-10-23T17:59:14.489Z,100169.22
2022-10-23T18:01:43.759Z,100174.31
2022-10-23T18:04:10.440Z,100166.88
2022-10-23T18:06:42.894Z,100163.44
2022-10-23T18:09:09.427Z,100145.31
2022-10-23T18:11:41.456Z,100146.94
2022-10-23T18:14:10.909Z,100138.38
2022-10-23T18:16:37.852Z,100152.41
2022-10-23T18:19:05.029Z,100143.84
2022-10-23T18:21:32.066Z,100137.59
2022-10-23T18:24:00.197Z,100131.47
2022-10-23T18:26:30.157Z,100134.75
2022-10-23T18:28:58.783Z,100113.13
2022-10-23T18:31:27.461Z,100110.84
2022-10-23T18:34:04.066Z,100135.81
2022-10-23T18:36:33.159Z,100146.19
2022-10-23T18:38:59.991Z,100133.34
2022-10-23T18:41:27.258Z,100128.09
2022-10-23T18:43:54.678Z,100138.63
2022-10-23T18:46:21.806Z,100120.22
2022-10-23T18:48:50.664Z,100141.13
2022-10-23T18:51:18.904Z,100134.03
2022-10-23T18:53:48.529Z,100140.31
2022-10-23T18:56:21.510Z,100100.91
2022-10-23T18:58:50.031Z,100097.22
2022-10-23T19:01:17.331Z,100114.94
2022-10-23T19:03:44.319Z,100123.19
2022-10-23T19:06:10.995Z,100091.63
2022-10-23T19:08:39.382Z,100120.56
2022-10-23T19:11:07.450Z,100119.38
2022-10-23T19:13:39.106Z,100120.22
2022-10-23T19:16:12.786Z,100106.38
2022-10-23T19:18:42.059Z,100107.41
2022-10-23T19:21:09.266Z,100117.44
2022-10-23T19:23:37.197Z,100127.06
2022-10-23T19:26:09.249Z,100129.50
2022-10-23T19:28:47.204Z,100122.31
2022-10-23T19:31:14.163Z,100123.09
2022-10-23T19:33:41.381Z,100127.56
2022-10-23T19:36:12.654Z,100138.13
2022-10-23T19:38:41.510Z,100144.38
2022-10-23T19:41:08.093Z,100137.13
2022-10-23T19:43:34.697Z,100086.81
2022-10-23T19:46:04.976Z,100118.47
2022-10-23T19:48:34.375Z,100117.03
2022-10-23T19:51:01.398Z,100128.38
2022-10-23T19:53:27.946Z,100117.69
2022-10-23T19:56:06.091Z,100111.94
2022-10-23T19:58:32.811Z,100126.75
2022-10-23T20:00:59.521Z,100126.09
2022-10-23T20:03:26.213Z,100127.09
2022-10-23T20:05:52.671Z,100131.69
2022-10-23T20:08:19.133Z,100154.91
2022-10-23T20:10:47.859Z,100189.19
2022-10-23T20:13:19.856Z,100191.53
2022-10-23T20:15:46.521Z,100192.78
2022-10-23T20:18:12.964Z,100227.06
2022-10-23T20:20:41.346Z,100249.63
2022-10-23T20:23:08.091Z,100262.00
2022-10-23T20:25:34.616Z,100254.91
2022-10-23T20:28:01.145Z,100276.13
2022-10-23T20:30:27.668Z,100257.31
2022-10-23T20:32:54.353Z,100247.41
2022-10-23T20:35:20.869Z,100257.97
2022-10-23T20:37:47.396Z,100238.53
2022-10-23T20:40:13.882Z,100242.53
2022-10-23T20:42:40.332Z,100225.38
2022-10-23T20:45:07.311Z,100230.00
2022-10-23T20:47:33.818Z,100220.63
2022-10-23T20:50:00.320Z,100198.91
2022-10-23T20:52:29.407Z,100192.81
2022-10-23T20:54:55.875Z,100212.88
2022-10-23T20:57:22.313Z,100213.22
2022-10-23T20:59:48.755Z,100208.31
2022-10-23T21:02:15.313Z,100213.75
2022-10-23T21:04:41.918Z,100207.50
2022-10-23T21:07:10.496Z,100217.25
2022-10-23T21:09:38.006Z,100223.50
2022-10-23T21:12:06.454Z,100211.31
2022-10-23T21:14:33.144Z,100217.59
2022-10-23T21:16:59.719Z,100216.78
2022-10-23T21:19:26.181Z,100229.63
2022-10-23T21:21:52.763Z,100217.16
2022-10-23T21:24:19.383Z,100222.72
2022-10-23T21:26:46.012Z,100217.28
2022-10-23T21:29:18.542Z,100224.72
2022-10-23T21:31:45.402Z,100228.34
2022-10-23T21:34:12.068Z,100199.38
2022-10-23T21:36:53.886Z,100213.53
2022-10-23T21:39:25.187Z,100223.88
2022-10-23T21:41:51.655Z,100219.13
2022-10-23T21:44:18.167Z,100221.59
2022-10-23T21:46:44.725Z,100226.84
2022-10-23T21:49:11.766Z,100230.13
2022-10-23T21:51:38.915Z,100223.88
2022-10-23T21:54:10.301Z,100229.16
2022-10-23T21:56:44.998Z,100168.16
2022-10-23T21:59:14.504Z,100195.44
2022-10-23T22:01:43.257Z,100218.97
2022-10-23T22:04:10.969Z,100208.13
2022-10-23T22:06:38.888Z,100216.31
2022-10-23T22:09:06.377Z,100211.56
2022-10-23T22:11:33.542Z,100224.06
2022-10-23T22:14:00.887Z,100226.84
2022-10-23T22:16:27.640Z,100225.56
2022-10-23T22:18:54.149Z,100226.19
2022-10-23T22:21:26.177Z,100220.94
2022-10-23T22:23:55.722Z,100225.84
2022-10-23T22:26:37.190Z,100229.31
2022-10-23T22:29:09.328Z,100224.06
2022-10-23T22:31:36.638Z,100178.16
2022-10-23T22:34:18.516Z,100209.75
2022-10-23T22:36:52.810Z,100185.72
2022-10-23T22:39:19.217Z,100212.38
2022-10-23T22:41:47.395Z,100203.28
2022-10-23T22:44:17.450Z,100204.91
2022-10-23T22:46:44.472Z,100218.09
2022-10-23T22:49:11.174Z,100198.84
2022-10-23T22:51:39.680Z,100199.66
2022-10-23T22:54:06.495Z,100204.75
2022-10-23T22:56:33.108Z,100198.84
2022-10-23T22:58:59.551Z,100208.03
2022-10-23T23:01:29.838Z,100186.69
2022-10-23T23:04:04.282Z,100194.38
2022-10-23T23:06:42.949Z,100209.03
2022-10-23T23:09:11.239Z,100217.78
2022-10-23T23:11:51.173Z,100208.25
2022-10-23T23:14:22.040Z,100215.66
2022-10-23T23:16:50.450Z,100182.91
2022-10-23T23:19:16.882Z,100209.25
2022-10-23T23:21:43.340Z,100202.50
2022-10-23T23:24:11.632Z,100212.69
2022-10-23T23:26:38.090Z,100209.06
2022-10-23T23:29:04.521Z,100213.16
2022-10-23T23:31:30.976Z,100208.75
2022-10-23T23:33:57.473Z,100198.19
2022-10-23T23:36:26.879Z,100212.34
2022-10-23T23:38:55.148Z,100197.34
2022-10-23T23:41:22.368Z,100168.53
2022-10-23T23:43:49.299Z,100191.09
2022-10-23T23:46:17.409Z,100187.66
2022-10-23T23:48:47.822Z,100174.81
2022-10-23T23:51:15.993Z,100174.81
2022-10-23T23:53:42.502Z,100168.53
2022-10-23T23:56:09.081Z,100142.03
2022-10-23T23:58:35.649Z,100162.63
